Terminal Aerodrome Forecast
Issued by NWS

Home | Current Version | Previous Version | Text Only | Print | Product List | Glossary On
Versions: 1 2 3 4 5 6 7 8 9 10 11 12 13 14 15 16 17
000
FTUS43 KDMX 250530
TAFMCW
TAF
KMCW 250530Z 2506/2606 14008KT P6SM FEW200
     FM251200 16012KT P6SM BKN030
     FM251630 16012G19KT P6SM SCT080
     FM260100 17009KT P6SM SCT200=

USA.gov is the U.S. government's official web portal to all federal, state and local government web resources and services.